Time;durP1;ratioP1;P1;durP2;ratioP2;P2;SDS_P1;SDS_P2;PMS_P1;PMS_P2;Temp;Humidity;BMP_temperature;BMP_pressure;BME280_temperature;BME280_humidity;BME280_pressure;Samples;Min_cycle;Max_cycle;Signal;HPM_P1;HPM_P2
2024/04/16 00:00:37;;;;;;;;;;;;;;;8.49;71.44;98281.14;130380;1262;107592;-78
2024/04/16 00:04:02;;;;;;;;;;;;;;;8.45;72.00;98290.18;130390;1262;109723;-78
2024/04/16 00:07:06;;;;;;;;;;;;;;;8.40;72.72;98280.42;130406;1262;108709;-78
2024/04/16 00:10:11;;;;;;;;;;;;;;;8.35;72.87;98268.09;130389;1258;107704;-78
2024/04/16 00:13:15;;;;;;;;;;;;;;;8.34;73.12;98251.03;130151;1268;106594;-78
2024/04/16 00:16:39;;;;;;;;;;;;;;;8.34;73.34;98246.78;130387;1262;107692;-78
2024/04/16 00:19:43;;;;;;;;;;;;;;;8.40;73.52;98232.47;130323;1260;107603;-79
2024/04/16 00:22:47;;;;;;;;;;;;;;;8.48;73.88;98228.96;130197;1259;108359;-78
2024/04/16 00:25:51;;;;;;;;;;;;;;;8.58;73.83;98232.14;130306;1260;106536;-78
2024/04/16 00:28:55;;;;;;;;;;;;;;;8.71;74.00;98234.57;130257;1262;108876;-78
2024/04/16 00:31:59;;;;;;;;;;;;;;;8.85;73.98;98233.96;130273;1260;108382;-78
2024/04/16 00:35:02;;;;;;;;;;;;;;;8.98;74.10;98286.79;130251;1259;107678;-78
2024/04/16 00:38:06;;;;;;;;;;;;;;;9.12;74.36;98329.14;130359;1262;108679;-78
2024/04/16 00:41:10;;;;;;;;;;;;;;;9.16;75.14;98366.14;130345;1261;107467;-78
2024/04/16 00:44:13;;;;;;;;;;;;;;;9.17;75.50;98389.65;130283;1262;106827;-79
2024/04/16 00:47:17;;;;;;;;;;;;;;;9.14;75.10;98367.48;130346;1262;107830;-78
2024/04/16 00:50:21;;;;;;;;;;;;;;;9.16;74.97;98346.11;130363;1259;106973;-78
2024/04/16 00:53:27;;;;;;;;;;;;;;;9.19;75.03;98328.38;130412;1262;109094;-78
2024/04/16 00:56:31;;;;;;;;;;;;;;;9.20;74.86;98320.25;130384;1260;107747;-78
2024/04/16 00:59:35;;;;;;;;;;;;;;;9.23;75.10;98284.61;130373;1262;107785;-78
2024/04/16 01:02:38;;;;;;;;;;;;;;;9.21;74.83;98294.55;130364;1264;107783;-78
2024/04/16 01:05:43;;;;;;;;;;;;;;;9.18;74.90;98296.64;130331;1260;106730;-78
2024/04/16 01:08:46;;;;;;;;;;;;;;;9.14;75.10;98284.14;130050;1262;106430;-79
2024/04/16 01:11:50;;;;;;;;;;;;;;;9.09;75.13;98283.84;130330;1262;107440;-78
2024/04/16 01:14:54;;;;;;;;;;;;;;;9.05;75.13;98284.51;130414;1261;106397;-78
2024/04/16 01:17:58;;;;;;;;;;;;;;;9.01;75.35;98283.94;130420;1262;107166;-78
2024/04/16 01:21:02;;;;;;;;;;;;;;;8.96;75.35;98275.22;130399;1260;108225;-78
2024/04/16 01:24:06;;;;;;;;;;;;;;;8.91;75.37;98272.98;130429;1271;107588;-78
2024/04/16 01:27:10;;;;;;;;;;;;;;;8.87;75.43;98265.69;130448;1262;109090;-78
2024/04/16 01:30:14;;;;;;;;;;;;;;;8.84;75.66;98268.81;130343;1263;108627;-78
2024/04/16 01:33:17;;;;;;;;;;;;;;;8.82;75.54;98269.12;130299;1263;108545;-78
2024/04/16 01:36:21;;;;;;;;;;;;;;;8.78;75.56;98266.60;130284;1262;107683;-78
2024/04/16 01:39:25;;;;;;;;;;;;;;;8.71;75.53;98251.35;130299;1262;107856;-78
2024/04/16 01:42:29;;;;;;;;;;;;;;;8.64;75.60;98250.05;130234;1262;106238;-78
2024/04/16 01:45:33;;;;;;;;;;;;;;;8.55;75.59;98256.67;130360;1262;107183;-78
2024/04/16 01:48:37;;;;;;;;;;;;;;;8.42;75.34;98248.52;130372;1259;106755;-78
2024/04/16 01:51:41;;;;;;;;;;;;;;;8.32;75.45;98226.48;130384;1262;107565;-78
2024/04/16 01:54:45;;;;;;;;;;;;;;;8.24;75.50;98211.64;130314;1262;108010;-78
2024/04/16 01:57:51;;;;;;;;;;;;;;;8.14;75.56;98206.79;130377;1262;107777;-78
2024/04/16 02:00:59;;;;;;;;;;;;;;;8.04;75.55;98205.13;130459;1262;106707;-78
2024/04/16 02:04:03;;;;;;;;;;;;;;;7.95;75.53;98215.85;130401;1263;107642;-78
2024/04/16 02:07:07;;;;;;;;;;;;;;;7.86;75.40;98217.63;130451;1262;108387;-78
2024/04/16 02:10:13;;;;;;;;;;;;;;;7.76;75.54;98219.10;130406;1262;106647;-78
2024/04/16 02:13:17;;;;;;;;;;;;;;;7.68;75.55;98228.92;130417;1264;108813;-78
2024/04/16 02:16:20;;;;;;;;;;;;;;;7.58;75.53;98242.19;130343;1273;107872;-78
2024/04/16 02:19:24;;;;;;;;;;;;;;;7.57;75.92;98240.09;130292;1262;108643;-78
2024/04/16 02:22:28;;;;;;;;;;;;;;;7.60;75.87;98235.31;130379;1262;106418;-78
2024/04/16 02:25:32;;;;;;;;;;;;;;;7.65;76.25;98234.07;130372;1260;108722;-78
2024/04/16 02:28:35;;;;;;;;;;;;;;;7.70;76.26;98233.08;130379;1262;108399;-79
2024/04/16 02:31:39;;;;;;;;;;;;;;;7.80;76.49;98238.75;130303;1262;108596;-79
2024/04/16 02:34:43;;;;;;;;;;;;;;;7.93;76.76;98236.09;130285;1262;107702;-79
2024/04/16 02:37:48;;;;;;;;;;;;;;;8.08;77.02;98239.74;130363;1271;107710;-79
2024/04/16 02:40:52;;;;;;;;;;;;;;;8.20;77.10;98240.36;130383;1260;106592;-79
2024/04/16 02:43:56;;;;;;;;;;;;;;;8.34;77.33;98237.59;130415;1271;107281;-78
2024/04/16 02:47:00;;;;;;;;;;;;;;;8.47;77.51;98232.71;130213;1261;212868;-78
2024/04/16 02:50:03;;;;;;;;;;;;;;;8.56;77.68;98221.11;130320;1263;107288;-78
2024/04/16 02:53:07;;;;;;;;;;;;;;;8.63;77.70;98212.95;130314;1260;107442;-78
2024/04/16 02:56:11;;;;;;;;;;;;;;;8.68;77.79;98206.03;130256;1263;108774;-78
2024/04/16 02:59:15;;;;;;;;;;;;;;;8.68;77.80;98212.50;130326;1271;108381;-78
2024/04/16 03:02:19;;;;;;;;;;;;;;;8.69;77.80;98205.20;130275;1263;107108;-78
2024/04/16 03:05:22;;;;;;;;;;;;;;;8.67;78.05;98202.52;130260;1262;106705;-78
2024/04/16 03:08:27;;;;;;;;;;;;;;;8.64;78.18;98192.27;130345;1263;107717;-79
2024/04/16 03:11:31;;;;;;;;;;;;;;;8.64;78.36;98186.52;130404;1271;107561;-78
2024/04/16 03:14:34;;;;;;;;;;;;;;;8.65;78.55;98180.04;130393;1271;107693;-78
2024/04/16 03:17:38;;;;;;;;;;;;;;;8.64;78.51;98187.11;130405;1271;108751;-79
2024/04/16 03:20:42;;;;;;;;;;;;;;;8.62;78.69;98185.70;130363;1271;106512;-79
2024/04/16 03:23:46;;;;;;;;;;;;;;;8.60;79.08;98179.88;130286;1263;108722;-79
2024/04/16 03:26:50;;;;;;;;;;;;;;;8.57;79.09;98170.77;130361;1262;108876;-78
2024/04/16 03:29:54;;;;;;;;;;;;;;;8.58;79.61;98170.66;130184;1262;107967;-79
2024/04/16 03:32:57;;;;;;;;;;;;;;;8.65;79.47;98179.59;130376;1263;108642;-79
2024/04/16 03:36:01;;;;;;;;;;;;;;;8.72;79.68;98208.52;130428;1262;108773;-78
2024/04/16 03:39:05;;;;;;;;;;;;;;;8.81;80.04;98213.95;130429;1264;108791;-78
2024/04/16 03:42:09;;;;;;;;;;;;;;;8.90;80.36;98224.56;130355;1262;107790;-78
2024/04/16 03:45:13;;;;;;;;;;;;;;;8.93;80.76;98233.16;130341;1263;106074;-78
2024/04/16 03:48:16;;;;;;;;;;;;;;;8.99;80.14;98243.61;130319;1262;108759;-78
2024/04/16 03:51:20;;;;;;;;;;;;;;;9.08;79.80;98246.42;130330;1263;107667;-78
2024/04/16 03:54:24;;;;;;;;;;;;;;;9.13;79.53;98236.28;130393;1271;108438;-77
2024/04/16 03:57:27;;;;;;;;;;;;;;;9.15;79.46;98230.97;130353;1271;107405;-77
2024/04/16 04:03:52;;;;;;;;;;;;;;;9.02;79.40;98263.66;130616;1259;106662;-79
2024/04/16 04:06:56;;;;;;;;;;;;;;;8.94;79.25;98271.56;132252;1263;107818;-79
2024/04/16 04:10:00;;;;;;;;;;;;;;;8.92;79.48;98283.73;131543;1262;108411;-79
2024/04/16 04:13:04;;;;;;;;;;;;;;;8.90;79.39;98287.11;130409;1261;106753;-78
2024/04/16 04:16:08;;;;;;;;;;;;;;;8.86;79.28;98289.70;130375;1263;108914;-78
2024/04/16 04:19:12;;;;;;;;;;;;;;;8.86;79.46;98298.05;130251;1274;107444;-78
2024/04/16 04:22:16;;;;;;;;;;;;;;;8.84;79.38;98305.36;130217;1260;107724;-80
2024/04/16 04:25:20;;;;;;;;;;;;;;;8.88;79.22;98328.18;130781;1264;106975;-80
2024/04/16 04:28:23;;;;;;;;;;;;;;;8.89;79.17;98328.52;130970;1257;107095;-80
2024/04/16 04:31:27;;;;;;;;;;;;;;;8.85;78.68;98336.70;131013;1261;107730;-81
2024/04/16 04:34:31;;;;;;;;;;;;;;;8.77;78.48;98344.16;132281;1259;108694;-75
2024/04/16 04:37:35;;;;;;;;;;;;;;;8.62;77.83;98370.63;132637;1257;107269;-74
2024/04/16 04:40:39;;;;;;;;;;;;;;;8.50;77.88;98380.95;130514;1271;108855;-74
2024/04/16 04:43:43;;;;;;;;;;;;;;;8.31;77.92;98391.55;130340;1263;106651;-72
2024/04/16 04:46:46;;;;;;;;;;;;;;;8.22;78.02;98395.84;130195;1261;106920;-74
2024/04/16 04:49:50;;;;;;;;;;;;;;;8.16;77.59;98407.85;130291;1258;108729;-73
2024/04/16 04:52:54;;;;;;;;;;;;;;;8.13;77.96;98414.10;130386;1261;108699;-73
2024/04/16 04:55:57;;;;;;;;;;;;;;;8.01;77.88;98416.89;130307;1264;108704;-72
2024/04/16 04:59:01;;;;;;;;;;;;;;;7.92;77.69;98422.09;130216;1264;107682;-71
2024/04/16 05:02:09;;;;;;;;;;;;;;;7.91;77.81;98435.97;130223;1264;107142;-73
2024/04/16 05:05:13;;;;;;;;;;;;;;;7.93;77.55;98437.64;130362;1264;107753;-72
2024/04/16 05:08:18;;;;;;;;;;;;;;;7.98;77.20;98433.20;130373;1271;107111;-73
2024/04/16 05:11:22;;;;;;;;;;;;;;;8.10;76.94;98443.05;130390;1258;106591;-74
2024/04/16 05:14:26;;;;;;;;;;;;;;;8.17;76.12;98447.08;130338;1273;108792;-74
2024/04/16 05:17:29;;;;;;;;;;;;;;;8.16;75.42;98454.81;130399;1262;108386;-74
2024/04/16 05:20:33;;;;;;;;;;;;;;;8.18;75.35;98454.36;130256;1263;107658;-73
2024/04/16 05:23:37;;;;;;;;;;;;;;;8.20;74.46;98462.32;130311;1257;106642;-78
2024/04/16 05:26:43;;;;;;;;;;;;;;;8.17;74.56;98460.48;130254;1271;107586;-77
2024/04/16 05:29:47;;;;;;;;;;;;;;;8.23;74.07;98461.91;130259;1258;108736;-80
2024/04/16 05:32:53;;;;;;;;;;;;;;;8.21;73.47;98469.27;130241;1264;106826;-80
2024/04/16 05:35:56;;;;;;;;;;;;;;;8.08;72.67;98471.70;130357;1264;108398;-79
2024/04/16 05:39:00;;;;;;;;;;;;;;;8.06;73.51;98483.24;130287;1263;106634;-79
2024/04/16 05:42:04;;;;;;;;;;;;;;;8.14;73.66;98491.69;130340;1263;107832;-77
2024/04/16 05:45:08;;;;;;;;;;;;;;;8.21;73.88;98492.75;130550;1261;107521;-77
2024/04/16 05:48:12;;;;;;;;;;;;;;;8.30;73.35;98489.11;130261;1260;107729;-79
2024/04/16 05:51:15;;;;;;;;;;;;;;;8.34;73.27;98491.50;130200;1258;107378;-78
2024/04/16 05:54:19;;;;;;;;;;;;;;;8.31;72.73;98493.59;130221;1263;107782;-78
2024/04/16 05:57:23;;;;;;;;;;;;;;;8.21;72.56;98504.44;130245;1263;105784;-77
2024/04/16 06:00:26;;;;;;;;;;;;;;;8.20;72.44;98507.05;130367;1263;106335;-77
2024/04/16 06:03:31;;;;;;;;;;;;;;;8.06;70.28;98506.23;130381;1271;107395;-77
2024/04/16 06:06:35;;;;;;;;;;;;;;;7.99;71.59;98503.02;130262;1264;106792;-79
2024/04/16 06:09:38;;;;;;;;;;;;;;;8.10;71.47;98507.58;130533;1262;107852;-79
2024/04/16 06:12:42;;;;;;;;;;;;;;;8.15;70.17;98507.45;130241;1262;106662;-78
2024/04/16 06:15:46;;;;;;;;;;;;;;;8.17;70.27;98509.73;130491;1261;108645;-77
2024/04/16 06:18:51;;;;;;;;;;;;;;;8.09;68.41;98503.14;130245;1264;107765;-76
2024/04/16 06:21:54;;;;;;;;;;;;;;;8.04;67.79;98511.11;130319;1264;108722;-77
2024/04/16 06:24:58;;;;;;;;;;;;;;;8.06;67.95;98514.75;130390;1263;108669;-76
2024/04/16 06:28:02;;;;;;;;;;;;;;;8.09;68.36;98511.96;130323;1257;108318;-77
2024/04/16 06:31:06;;;;;;;;;;;;;;;8.19;68.63;98519.61;130293;1258;107562;-78
2024/04/16 06:34:09;;;;;;;;;;;;;;;8.29;68.36;98507.95;130349;1257;108656;-76
2024/04/16 06:37:13;;;;;;;;;;;;;;;8.39;67.99;98506.80;130393;1261;107741;-78
2024/04/16 06:40:17;;;;;;;;;;;;;;;8.43;66.37;98505.11;130314;1258;108166;-76
2024/04/16 06:43:21;;;;;;;;;;;;;;;8.52;65.92;98506.91;130693;1257;106854;-78
2024/04/16 06:46:25;;;;;;;;;;;;;;;8.60;64.72;98510.52;130349;1257;108764;-78
2024/04/16 06:49:29;;;;;;;;;;;;;;;8.57;66.07;98503.40;130346;1268;107733;-80
2024/04/16 06:52:33;;;;;;;;;;;;;;;8.68;67.75;98510.20;130422;1270;107204;-78
2024/04/16 06:55:37;;;;;;;;;;;;;;;8.79;66.65;98516.49;130543;1259;108726;-78
2024/04/16 06:58:40;;;;;;;;;;;;;;;8.79;66.13;98522.23;130340;1264;107634;-77
2024/04/16 07:01:44;;;;;;;;;;;;;;;8.59;64.55;98519.00;130402;1262;108467;-84
2024/04/16 07:04:48;;;;;;;;;;;;;;;8.43;65.86;98521.23;130588;1263;105471;-71
2024/04/16 07:07:52;;;;;;;;;;;;;;;8.49;66.30;98527.29;130431;1258;107995;-77
2024/04/16 07:10:55;;;;;;;;;;;;;;;8.64;66.39;98523.94;130413;1262;107229;-78
2024/04/16 07:13:59;;;;;;;;;;;;;;;8.79;65.15;98528.89;130487;1257;108859;-81
2024/04/16 07:17:03;;;;;;;;;;;;;;;9.04;65.70;98534.25;130425;1262;107553;-79
2024/04/16 07:20:08;;;;;;;;;;;;;;;9.26;64.44;98545.86;130410;1257;108485;-78
2024/04/16 07:23:12;;;;;;;;;;;;;;;9.33;63.31;98537.79;130240;1258;108583;-78
2024/04/16 07:26:16;;;;;;;;;;;;;;;9.44;64.14;98531.23;130313;1257;106301;-78
2024/04/16 07:29:20;;;;;;;;;;;;;;;9.58;63.28;98534.84;130562;1258;109372;-78
2024/04/16 07:32:24;;;;;;;;;;;;;;;9.64;62.98;98541.41;130301;1265;108553;-78
2024/04/16 07:35:27;;;;;;;;;;;;;;;9.73;63.80;98548.63;130287;1257;105752;-78
2024/04/16 07:38:31;;;;;;;;;;;;;;;9.83;62.52;98554.14;130354;1257;107904;-78
2024/04/16 07:41:35;;;;;;;;;;;;;;;9.96;60.17;98559.04;130678;1261;108733;-79
2024/04/16 07:44:39;;;;;;;;;;;;;;;10.00;59.05;98551.42;130725;1262;107735;-78
2024/04/16 07:47:43;;;;;;;;;;;;;;;10.03;59.46;98537.70;130443;1257;108602;-79
2024/04/16 07:50:48;;;;;;;;;;;;;;;9.97;57.24;98536.34;130333;1261;108696;-78
2024/04/16 07:53:52;;;;;;;;;;;;;;;9.83;56.14;98539.42;130328;1260;108577;-79
2024/04/16 07:56:56;;;;;;;;;;;;;;;9.64;56.86;98538.94;130294;1257;106596;-78
2024/04/16 07:59:59;;;;;;;;;;;;;;;9.67;56.91;98531.80;130483;1260;106380;-79
2024/04/16 08:03:03;;;;;;;;;;;;;;;9.67;56.57;98540.89;131125;1257;108465;-78
2024/04/16 08:06:08;;;;;;;;;;;;;;;9.63;56.68;98539.42;130894;1257;109656;-80
2024/04/16 08:09:12;;;;;;;;;;;;;;;9.67;57.24;98539.54;130234;1257;106570;-80
2024/04/16 08:12:16;;;;;;;;;;;;;;;9.72;57.54;98534.84;130328;1262;108015;-80
2024/04/16 08:15:20;;;;;;;;;;;;;;;9.70;57.15;98536.30;130536;1262;108851;-79
2024/04/16 08:18:24;;;;;;;;;;;;;;;9.76;57.14;98542.09;130573;1262;107697;-79
2024/04/16 08:21:27;;;;;;;;;;;;;;;9.80;57.56;98545.33;130299;1258;107477;-79
2024/04/16 08:24:31;;;;;;;;;;;;;;;9.87;57.74;98541.46;130378;1271;106697;-79
2024/04/16 08:27:35;;;;;;;;;;;;;;;9.97;57.60;98547.99;130284;1261;107791;-79
2024/04/16 08:30:39;;;;;;;;;;;;;;;10.10;56.94;98553.19;130295;1273;106889;-80
2024/04/16 08:33:43;;;;;;;;;;;;;;;10.24;57.51;98569.21;130422;1263;106534;-80
2024/04/16 08:36:47;;;;;;;;;;;;;;;10.40;57.63;98589.07;130321;1263;106507;-82
2024/04/16 08:39:51;;;;;;;;;;;;;;;10.45;57.03;98601.02;130779;1262;108676;-80
2024/04/16 08:42:54;;;;;;;;;;;;;;;10.48;57.56;98612.27;130298;1262;106984;-78
2024/04/16 08:45:59;;;;;;;;;;;;;;;10.51;57.91;98614.95;130793;1259;106610;-78
2024/04/16 08:49:04;;;;;;;;;;;;;;;10.63;57.98;98612.87;130267;1264;107003;-79
2024/04/16 08:52:10;;;;;;;;;;;;;;;10.74;57.06;98607.37;130332;1262;106558;-78
2024/04/16 08:55:14;;;;;;;;;;;;;;;10.86;57.43;98612.83;130450;1260;107763;-78
2024/04/16 08:58:18;;;;;;;;;;;;;;;10.89;56.90;98616.45;130252;1259;107831;-80
2024/04/16 09:01:22;;;;;;;;;;;;;;;10.91;57.05;98625.17;130296;1263;108364;-80
2024/04/16 09:04:26;;;;;;;;;;;;;;;10.90;56.63;98624.52;130467;1270;108715;-80
2024/04/16 09:07:32;;;;;;;;;;;;;;;10.85;56.80;98631.80;130420;1262;108678;-80
2024/04/16 09:10:37;;;;;;;;;;;;;;;10.82;56.56;98642.64;130403;1273;106458;-80
2024/04/16 09:13:43;;;;;;;;;;;;;;;10.79;56.46;98649.36;130324;1258;108417;-80
2024/04/16 09:16:48;;;;;;;;;;;;;;;10.77;56.17;98665.31;130556;1258;106506;-78
2024/04/16 09:19:52;;;;;;;;;;;;;;;10.83;56.01;98664.45;130289;1257;108538;-81
2024/04/16 09:22:56;;;;;;;;;;;;;;;10.93;56.23;98674.09;130394;1262;108748;-80
2024/04/16 09:25:59;;;;;;;;;;;;;;;11.08;55.60;98677.80;130337;1262;106986;-83
2024/04/16 09:29:03;;;;;;;;;;;;;;;11.02;55.09;98680.89;130509;1256;106072;-82
2024/04/16 09:32:07;;;;;;;;;;;;;;;10.87;54.33;98693.26;130645;1262;108628;-81
2024/04/16 09:35:11;;;;;;;;;;;;;;;10.65;54.01;98688.73;130430;1257;108678;-81
2024/04/16 09:38:15;;;;;;;;;;;;;;;10.58;55.37;98689.77;130528;1258;106544;-81
2024/04/16 09:41:19;;;;;;;;;;;;;;;10.62;55.21;98685.38;130437;1262;107977;-80
2024/04/16 09:44:25;;;;;;;;;;;;;;;10.68;54.02;98686.08;130622;1261;107777;-81
2024/04/16 09:47:30;;;;;;;;;;;;;;;10.60;54.43;98684.87;130467;1258;107308;-81
2024/04/16 09:50:36;;;;;;;;;;;;;;;10.66;54.98;98687.88;130486;1262;106802;-81
2024/04/16 09:53:40;;;;;;;;;;;;;;;10.73;55.36;98687.48;130414;1262;107672;-78
2024/04/16 09:56:44;;;;;;;;;;;;;;;10.77;55.43;98683.61;130357;1257;107717;-79
2024/04/16 09:59:50;;;;;;;;;;;;;;;10.85;55.05;98678.33;130359;1257;108746;-78
2024/04/16 10:02:54;;;;;;;;;;;;;;;10.93;54.89;98669.61;130381;1262;107831;-77
2024/04/16 10:05:58;;;;;;;;;;;;;;;10.96;54.25;98669.80;130257;1257;107217;-78
2024/04/16 10:09:03;;;;;;;;;;;;;;;10.92;53.88;98659.84;130266;1257;107714;-78
2024/04/16 10:12:08;;;;;;;;;;;;;;;10.86;54.26;98664.39;130331;1261;106680;-78
2024/04/16 10:15:14;;;;;;;;;;;;;;;10.79;54.56;98663.43;130603;1261;107090;-77
2024/04/16 10:18:18;;;;;;;;;;;;;;;10.74;55.09;98671.55;130381;1260;107670;-79
2024/04/16 10:21:25;;;;;;;;;;;;;;;10.72;55.19;98677.50;130332;1261;106779;-78
2024/04/16 10:24:30;;;;;;;;;;;;;;;10.70;54.86;98684.42;130483;1261;108826;-78
2024/04/16 10:27:34;;;;;;;;;;;;;;;10.65;54.91;98686.55;130424;1258;107754;-78
2024/04/16 10:30:38;;;;;;;;;;;;;;;10.54;54.13;98681.73;130434;1261;107625;-80
2024/04/16 10:33:47;;;;;;;;;;;;;;;10.36;54.39;98670.73;130433;1264;108972;-79
2024/04/16 10:36:52;;;;;;;;;;;;;;;10.32;54.37;98674.84;130238;1263;108549;-78
2024/04/16 10:39:58;;;;;;;;;;;;;;;10.28;54.76;98656.27;130283;1262;107141;-79
2024/04/16 10:43:02;;;;;;;;;;;;;;;10.31;54.90;98650.12;130361;1262;108604;-79
2024/04/16 10:46:07;;;;;;;;;;;;;;;10.51;54.75;98637.89;130420;1258;107239;-78
2024/04/16 10:49:11;;;;;;;;;;;;;;;10.80;54.67;98618.95;130311;1257;107687;-79
2024/04/16 10:52:15;;;;;;;;;;;;;;;11.07;54.74;98620.80;130378;1258;108538;-78
2024/04/16 10:55:19;;;;;;;;;;;;;;;11.35;54.44;98622.17;130587;1259;106506;-77
2024/04/16 10:58:23;;;;;;;;;;;;;;;11.51;53.37;98610.30;130345;1259;107049;-77
2024/04/16 11:01:26;;;;;;;;;;;;;;;11.51;53.43;98623.16;130432;1257;106713;-77
2024/04/16 11:04:31;;;;;;;;;;;;;;;11.52;53.51;98635.13;130400;1257;107362;-78
2024/04/16 11:07:35;;;;;;;;;;;;;;;11.46;53.23;98639.73;130463;1262;106424;-79
2024/04/16 11:10:42;;;;;;;;;;;;;;;11.35;53.17;98641.98;130379;1257;106945;-79
2024/04/16 11:13:46;;;;;;;;;;;;;;;11.24;52.33;98644.10;130392;1261;107869;-79
2024/04/16 11:16:50;;;;;;;;;;;;;;;11.11;53.52;98646.83;130468;1261;108529;-78
2024/04/16 11:19:53;;;;;;;;;;;;;;;11.01;52.94;98652.75;130355;1260;107163;-79
2024/04/16 11:22:58;;;;;;;;;;;;;;;10.94;53.29;98659.20;130317;1256;107677;-78
2024/04/16 11:26:02;;;;;;;;;;;;;;;10.95;53.48;98655.55;130319;1260;107808;-79
2024/04/16 11:29:06;;;;;;;;;;;;;;;11.07;53.50;98640.47;130151;1260;108720;-81
2024/04/16 11:32:09;;;;;;;;;;;;;;;11.22;53.43;98645.10;130367;1256;108686;-78
2024/04/16 11:35:15;;;;;;;;;;;;;;;11.46;53.73;98641.41;130383;1256;108044;-79
2024/04/16 11:38:20;;;;;;;;;;;;;;;11.79;53.51;98646.48;130409;1261;106669;-79
2024/04/16 11:41:24;;;;;;;;;;;;;;;12.14;53.28;98643.77;130410;1261;107704;-80
2024/04/16 11:44:28;;;;;;;;;;;;;;;12.47;52.81;98642.33;130376;1261;106587;-80
2024/04/16 11:47:32;;;;;;;;;;;;;;;12.72;52.47;98632.91;130377;1260;107369;-80
2024/04/16 11:50:35;;;;;;;;;;;;;;;12.89;52.49;98638.13;130453;1260;108735;-79
2024/04/16 11:53:40;;;;;;;;;;;;;;;12.91;52.09;98639.60;130577;1271;107795;-78
2024/04/16 11:56:48;;;;;;;;;;;;;;;12.84;52.19;98642.11;130290;1263;108561;-78
2024/04/16 11:59:56;;;;;;;;;;;;;;;12.74;51.42;98650.40;130390;1260;106856;-79
2024/04/16 12:03:01;;;;;;;;;;;;;;;12.59;51.28;98652.30;130338;1260;106737;-79
2024/04/16 12:06:05;;;;;;;;;;;;;;;12.40;51.47;98657.50;130405;1263;107768;-79
2024/04/16 12:09:09;;;;;;;;;;;;;;;12.25;51.70;98655.80;130326;1257;106794;-79
2024/04/16 12:12:13;;;;;;;;;;;;;;;12.18;52.01;98660.19;130392;1260;106375;-80
2024/04/16 12:15:17;;;;;;;;;;;;;;;12.14;52.23;98659.32;130557;1261;107663;-79
2024/04/16 12:18:21;;;;;;;;;;;;;;;12.05;51.70;98659.63;130321;1262;107549;-79
2024/04/16 12:21:25;;;;;;;;;;;;;;;11.92;51.43;98652.23;130385;1263;108752;-77
2024/04/16 12:24:29;;;;;;;;;;;;;;;11.85;51.77;98651.48;130186;1260;106586;-78
2024/04/16 12:27:32;;;;;;;;;;;;;;;11.89;51.44;98641.42;130222;1258;106816;-79
2024/04/16 12:30:36;;;;;;;;;;;;;;;12.03;51.56;98634.94;130309;1258;107915;-80
2024/04/16 12:33:40;;;;;;;;;;;;;;;12.19;51.64;98630.38;130455;1257;105855;-80
2024/04/16 12:36:44;;;;;;;;;;;;;;;12.32;50.95;98630.55;130388;1259;108784;-79
2024/04/16 12:39:48;;;;;;;;;;;;;;;12.39;51.27;98628.27;130998;1262;107305;-80
2024/04/16 12:42:51;;;;;;;;;;;;;;;12.54;51.36;98634.80;130680;1257;107813;-80
2024/04/16 12:45:58;;;;;;;;;;;;;;;12.51;50.77;98641.51;130444;1260;107730;-80
2024/04/16 12:49:02;;;;;;;;;;;;;;;12.41;50.92;98639.00;130461;1261;106499;-80
2024/04/16 12:52:09;;;;;;;;;;;;;;;12.35;51.26;98633.39;130495;1257;107747;-80
2024/04/16 12:55:13;;;;;;;;;;;;;;;12.25;51.25;98632.35;130482;1261;107577;-80
2024/04/16 12:58:16;;;;;;;;;;;;;;;12.27;51.29;98630.34;130430;1261;107807;-81
2024/04/16 13:01:20;;;;;;;;;;;;;;;12.39;51.35;98629.48;130425;1260;109000;-80
2024/04/16 13:04:24;;;;;;;;;;;;;;;12.49;51.37;98628.05;130231;1257;107911;-80
2024/04/16 13:07:29;;;;;;;;;;;;;;;12.52;51.31;98631.06;130377;1257;108654;-80
2024/04/16 13:10:35;;;;;;;;;;;;;;;12.51;51.35;98629.99;130424;1261;108759;-80
2024/04/16 13:13:39;;;;;;;;;;;;;;;12.49;51.36;98622.95;130376;1261;108976;-80
2024/04/16 13:16:43;;;;;;;;;;;;;;;12.48;51.50;98617.23;130354;1262;108185;-79
2024/04/16 13:19:49;;;;;;;;;;;;;;;12.43;51.53;98611.77;130462;1260;107596;-80
2024/04/16 13:22:52;;;;;;;;;;;;;;;12.32;51.42;98607.14;130428;1263;106456;-81
2024/04/16 13:25:56;;;;;;;;;;;;;;;12.23;51.20;98605.81;130484;1257;108240;-80
2024/04/16 13:29:00;;;;;;;;;;;;;;;12.16;51.26;98615.95;130437;1257;108715;-80
2024/04/16 13:32:05;;;;;;;;;;;;;;;12.08;51.29;98617.27;130246;1260;107796;-80
2024/04/16 13:35:09;;;;;;;;;;;;;;;12.06;51.35;98618.83;130326;1262;106510;-80
2024/04/16 13:38:13;;;;;;;;;;;;;;;12.05;51.56;98617.22;130329;1259;108741;-80
2024/04/16 13:41:16;;;;;;;;;;;;;;;12.06;51.57;98616.57;130915;1259;109463;-80
2024/04/16 13:44:20;;;;;;;;;;;;;;;12.09;51.32;98616.00;130314;1258;107497;-81
2024/04/16 13:47:24;;;;;;;;;;;;;;;12.08;51.34;98623.73;131629;1259;105801;-79
2024/04/16 13:50:28;;;;;;;;;;;;;;;12.20;51.64;98611.27;133599;1257;106875;-81
2024/04/16 13:53:32;;;;;;;;;;;;;;;12.44;51.56;98615.66;130651;1262;107734;-80
2024/04/16 13:56:36;;;;;;;;;;;;;;;12.48;51.63;98629.49;131249;1257;107301;-79
2024/04/16 13:59:39;;;;;;;;;;;;;;;12.37;51.39;98637.92;130901;1258;108102;-81
2024/04/16 14:02:43;;;;;;;;;;;;;;;12.30;51.73;98627.80;132081;1262;107796;-80
2024/04/16 14:05:47;;;;;;;;;;;;;;;12.32;51.61;98627.77;130801;1262;106599;-80
2024/04/16 14:08:51;;;;;;;;;;;;;;;12.40;51.65;98613.64;130317;1258;107663;-79
2024/04/16 14:11:55;;;;;;;;;;;;;;;12.55;51.67;98602.90;130208;1263;107225;-80
2024/04/16 14:14:59;;;;;;;;;;;;;;;12.71;51.34;98601.59;131042;1257;106739;-81
2024/04/16 14:18:04;;;;;;;;;;;;;;;12.84;50.82;98612.55;130544;1262;107299;-80
2024/04/16 14:21:08;;;;;;;;;;;;;;;12.86;50.31;98609.84;130499;1259;107527;-81
2024/04/16 14:24:12;;;;;;;;;;;;;;;12.76;50.26;98605.08;130378;1262;107557;-81
2024/04/16 14:27:17;;;;;;;;;;;;;;;12.71;50.75;98606.23;130872;1262;107914;-80
2024/04/16 14:30:52;;;;;;;;;;;;;;;12.65;50.50;98604.97;130708;1258;108765;-81
2024/04/16 14:33:56;;;;;;;;;;;;;;;12.55;50.81;98601.79;131019;1257;108347;-81
2024/04/16 14:37:01;;;;;;;;;;;;;;;12.48;50.87;98617.07;131033;1258;107720;-80
2024/04/16 14:40:06;;;;;;;;;;;;;;;12.38;50.54;98607.88;130607;1256;107834;-82
2024/04/16 14:43:11;;;;;;;;;;;;;;;12.32;50.92;98607.88;130614;1259;107294;-82
2024/04/16 14:46:16;;;;;;;;;;;;;;;12.32;51.24;98609.11;130214;1259;192114;-79
2024/04/16 14:49:20;;;;;;;;;;;;;;;12.39;51.02;98602.13;130318;1264;107739;-73
2024/04/16 14:52:24;;;;;;;;;;;;;;;12.46;50.83;98606.73;130368;1262;106812;-74
2024/04/16 14:55:28;;;;;;;;;;;;;;;12.50;50.77;98600.92;130410;1262;108150;-73
2024/04/16 14:58:32;;;;;;;;;;;;;;;12.57;50.51;98605.45;130837;1259;106688;-73
2024/04/16 15:01:35;;;;;;;;;;;;;;;12.60;50.35;98613.44;130379;1258;106990;-72
2024/04/16 15:04:39;;;;;;;;;;;;;;;12.66;50.65;98622.29;130242;1264;107936;-72
2024/04/16 15:07:43;;;;;;;;;;;;;;;12.74;50.61;98621.90;130216;1264;107684;-72
2024/04/16 15:10:47;;;;;;;;;;;;;;;12.79;50.67;98619.69;130266;1265;108506;-72
2024/04/16 15:13:50;;;;;;;;;;;;;;;12.78;50.60;98622.98;130213;1257;106580;-72
2024/04/16 15:16:54;;;;;;;;;;;;;;;12.77;50.43;98628.09;130438;1262;108170;-72
2024/04/16 15:19:58;;;;;;;;;;;;;;;12.77;50.53;98633.11;130240;1257;106035;-72
2024/04/16 15:23:02;;;;;;;;;;;;;;;12.74;50.10;98641.30;130237;1257;105418;-73
2024/04/16 15:26:06;;;;;;;;;;;;;;;12.63;49.84;98642.29;130188;1263;108373;-72
2024/04/16 15:29:09;;;;;;;;;;;;;;;12.52;49.44;98634.84;130196;1264;108702;-72
2024/04/16 15:32:13;;;;;;;;;;;;;;;12.39;49.09;98638.55;130485;1257;107664;-72
2024/04/16 15:35:17;;;;;;;;;;;;;;;12.30;49.76;98633.73;130682;1258;107651;-81
2024/04/16 15:38:22;;;;;;;;;;;;;;;12.31;49.78;98633.77;130628;1256;108383;-85
2024/04/16 15:41:25;;;;;;;;;;;;;;;12.33;49.77;98635.95;130614;1260;107461;-84
2024/04/16 15:44:29;;;;;;;;;;;;;;;12.36;49.97;98627.92;130567;1256;106707;-81